Time;durP1;ratioP1;P1;durP2;ratioP2;P2;SDS_P1;SDS_P2;PMS_P1;PMS_P2;Temp;Humidity;BMP_temperature;BMP_pressure;BME280_temperature;BME280_humidity;BME280_pressure;Samples;Min_cycle;Max_cycle;Signal;HPM_P1;HPM_P2
2023/07/26 00:00:18;;;;;;;8.00;6.80;;;11.10;99.90;;;;;;2064973;28;20209;-84
2023/07/26 00:01:18;;;;;;;9.70;7.50;;;11.10;99.90;;;;;;2061155;28;20281;-84
2023/07/26 00:02:19;;;;;;;9.10;7.43;;;11.20;99.90;;;;;;2069884;28;20272;-84
2023/07/26 00:03:20;;;;;;;9.97;7.00;;;11.20;99.90;;;;;;2081138;28;20249;-84
2023/07/26 00:04:20;;;;;;;7.57;6.77;;;11.30;99.90;;;;;;2077111;28;20239;-83
2023/07/26 00:05:22;;;;;;;10.50;7.37;;;11.40;99.90;;;;;;2073382;28;20243;-84
2023/07/26 00:06:23;;;;;;;8.30;6.47;;;11.50;99.90;;;;;;2065411;28;20766;-84
2023/07/26 00:07:23;;;;;;;7.70;6.67;;;11.40;99.90;;;;;;2068485;28;20284;-85
2023/07/26 00:08:24;;;;;;;10.93;7.33;;;11.40;99.90;;;;;;2077385;28;20304;-84
2023/07/26 00:09:25;;;;;;;9.13;7.40;;;11.30;99.90;;;;;;2072932;28;20723;-84
2023/07/26 00:10:25;;;;;;;9.07;7.13;;;11.20;99.90;;;;;;2064921;28;20284;-84
2023/07/26 00:11:28;;;;;;;8.23;6.63;;;11.10;99.90;;;;;;2067759;28;20246;-83
2023/07/26 00:12:29;;;;;;;8.07;6.30;;;11.10;99.90;;;;;;2069319;28;20234;-83
2023/07/26 00:13:30;;;;;;;10.70;7.67;;;11.30;99.90;;;;;;2065606;28;20229;-83
2023/07/26 00:14:30;;;;;;;9.67;7.27;;;11.20;99.90;;;;;;2073540;28;20225;-84
2023/07/26 00:15:31;;;;;;;8.33;6.87;;;11.10;99.90;;;;;;2064655;28;20241;-83
2023/07/26 00:16:33;;;;;;;10.33;7.23;;;11.10;99.90;;;;;;2065965;28;20264;-84
2023/07/26 00:17:33;;;;;;;10.23;7.47;;;11.00;99.90;;;;;;2057090;28;20338;-83
2023/07/26 00:18:34;;;;;;;8.33;6.93;;;11.00;99.90;;;;;;2061630;28;20317;-85
2023/07/26 00:19:35;;;;;;;11.43;7.07;;;11.00;99.90;;;;;;2069379;28;20230;-83
2023/07/26 00:20:35;;;;;;;11.37;7.60;;;11.00;99.90;;;;;;2061003;28;20239;-84
2023/07/26 00:21:37;;;;;;;11.30;7.70;;;11.10;99.90;;;;;;2065974;28;20237;-84
2023/07/26 00:22:38;;;;;;;10.57;6.43;;;11.10;99.90;;;;;;2068890;28;20302;-84
2023/07/26 00:23:38;;;;;;;9.00;7.07;;;11.10;99.90;;;;;;2077984;28;20229;-85
2023/07/26 00:24:39;;;;;;;11.13;7.10;;;11.10;99.90;;;;;;2081278;28;20263;-84
2023/07/26 00:25:40;;;;;;;9.53;6.43;;;11.10;99.90;;;;;;2062005;28;20254;-83
2023/07/26 00:26:41;;;;;;;7.93;7.10;;;11.00;99.90;;;;;;2064462;28;20285;-84
2023/07/26 00:27:41;;;;;;;8.43;6.40;;;11.00;99.90;;;;;;2064993;28;20269;-85
2023/07/26 00:28:42;;;;;;;12.47;7.60;;;10.90;99.90;;;;;;2069464;28;20234;-84
2023/07/26 00:29:43;;;;;;;9.93;7.60;;;10.90;99.90;;;;;;2081083;28;20236;-84
2023/07/26 00:30:43;;;;;;;8.30;6.93;;;10.90;99.90;;;;;;2073342;28;20312;-85
2023/07/26 00:31:44;;;;;;;10.10;6.40;;;11.00;99.90;;;;;;2069192;28;20237;-83
2023/07/26 00:32:45;;;;;;;8.10;6.07;;;11.00;99.90;;;;;;2065111;28;20589;-84
2023/07/26 00:33:45;;;;;;;8.40;6.43;;;11.00;99.90;;;;;;2076919;28;20304;-84
2023/07/26 00:34:46;;;;;;;9.17;7.13;;;11.00;99.90;;;;;;2065272;28;20298;-85
2023/07/26 00:35:47;;;;;;;9.27;7.43;;;11.10;99.90;;;;;;2065217;28;20277;-85
2023/07/26 00:36:47;;;;;;;9.93;6.80;;;11.00;99.90;;;;;;2065321;28;20438;-83
2023/07/26 00:37:50;;;;;;;9.87;6.50;;;10.90;99.90;;;;;;2064636;28;20266;-83
2023/07/26 00:38:50;;;;;;;10.48;6.97;;;10.90;99.90;;;;;;2057432;28;20262;-84
2023/07/26 00:39:51;;;;;;;7.47;6.27;;;10.90;99.90;;;;;;2064993;28;20289;-84
2023/07/26 00:40:52;;;;;;;8.70;6.43;;;10.90;99.90;;;;;;2064995;28;20266;-84
2023/07/26 00:41:52;;;;;;;9.80;6.13;;;10.90;99.90;;;;;;2065085;28;20230;-84
2023/07/26 00:42:53;;;;;;;10.33;7.07;;;10.90;99.90;;;;;;2061054;28;20228;-84
2023/07/26 00:43:54;;;;;;;11.13;7.07;;;10.90;99.90;;;;;;2060938;28;20253;-84
2023/07/26 00:44:54;;;;;;;9.40;7.00;;;10.90;99.90;;;;;;2069594;28;20229;-85
2023/07/26 00:45:55;;;;;;;9.13;6.53;;;10.90;99.90;;;;;;2070209;28;20221;-84
2023/07/26 00:46:56;;;;;;;9.03;6.20;;;10.90;99.90;;;;;;2065219;28;20304;-83
2023/07/26 00:47:57;;;;;;;6.60;5.90;;;10.90;99.90;;;;;;2068987;28;20233;-85
2023/07/26 00:48:58;;;;;;;8.52;7.10;;;10.90;99.90;;;;;;2077335;28;20252;-84
2023/07/26 00:49:59;;;;;;;7.20;5.60;;;10.90;99.90;;;;;;2061774;28;20525;-84
2023/07/26 00:51:01;;;;;;;8.13;6.40;;;11.00;99.90;;;;;;2053078;28;20503;-83
2023/07/26 00:52:02;;;;;;;8.13;5.75;;;11.00;99.90;;;;;;2069317;28;20213;-83
2023/07/26 00:53:04;;;;;;;9.25;6.75;;;11.00;99.90;;;;;;2068699;28;20305;-84
2023/07/26 00:54:06;;;;;;;9.48;6.53;;;11.00;99.90;;;;;;2057980;28;20198;-84
2023/07/26 00:55:08;;;;;;;8.13;5.82;;;11.00;99.90;;;;;;2074568;28;20217;-84
2023/07/26 00:56:09;;;;;;;10.02;6.20;;;11.00;99.90;;;;;;2076282;28;20193;-84
2023/07/26 00:57:10;;;;;;;7.15;5.40;;;11.00;99.90;;;;;;2075775;28;20185;-82
2023/07/26 00:58:12;;;;;;;7.95;5.75;;;11.00;99.90;;;;;;2078101;28;20245;-83
2023/07/26 00:59:13;;;;;;;6.72;5.60;;;11.00;99.90;;;;;;2077055;28;20197;-83
2023/07/26 01:00:14;;;;;;;8.40;5.63;;;11.00;99.90;;;;;;2076308;28;20244;-83
2023/07/26 01:01:15;;;;;;;5.88;5.20;;;11.10;99.90;;;;;;2074698;28;20194;-84
2023/07/26 01:02:16;;;;;;;8.00;6.23;;;11.10;99.90;;;;;;2074903;28;20217;-84
2023/07/26 01:03:18;;;;;;;8.93;5.70;;;11.10;99.90;;;;;;2071593;28;20272;-84
2023/07/26 01:04:18;;;;;;;6.20;5.30;;;11.10;99.90;;;;;;2070481;28;22438;-84
2023/07/26 01:05:22;;;;;;;8.37;6.53;;;11.00;99.90;;;;;;2070377;28;20298;-84
2023/07/26 01:06:44;;;;;;;9.20;6.60;;;11.00;99.90;;;;;;2074832;28;20238;-84
2023/07/26 01:08:26;;;;;;;8.20;5.85;;;10.80;99.90;;;;;;2072825;28;20241;-84
2023/07/26 01:09:52;;;;;;;7.28;6.43;;;10.90;99.90;;;;;;2068741;28;20263;-84
2023/07/26 01:11:28;;;;;;;7.55;5.97;;;10.90;99.90;;;;;;2066415;28;20256;-85
2023/07/26 01:12:42;;;;;;;8.00;6.47;;;11.00;99.90;;;;;;2069866;28;20288;-83
2023/07/26 01:13:55;;;;;;;7.57;5.40;;;11.00;99.90;;;;;;2079505;28;20597;-84
2023/07/26 01:15:02;;;;;;;8.73;5.60;;;11.00;99.90;;;;;;2075781;28;20239;-83
2023/07/26 01:16:03;;;;;;;7.05;6.35;;;10.90;99.90;;;;;;2063657;28;20218;-83
2023/07/26 01:17:05;;;;;;;7.65;5.47;;;10.90;99.90;;;;;;2057437;28;20241;-83
2023/07/26 01:18:08;;;;;;;6.53;5.93;;;10.90;99.90;;;;;;2079468;28;20187;-83
2023/07/26 01:19:08;;;;;;;6.75;5.93;;;10.80;99.90;;;;;;2076520;28;20194;-84
2023/07/26 01:20:10;;;;;;;7.47;5.93;;;10.90;99.90;;;;;;2066228;28;20205;-84
2023/07/26 01:21:10;;;;;;;6.35;5.68;;;10.90;99.90;;;;;;2064742;28;20210;-83
2023/07/26 01:22:11;;;;;;;8.07;5.87;;;11.00;99.90;;;;;;2078845;28;20184;-84
2023/07/26 01:23:12;;;;;;;8.67;5.50;;;11.10;99.90;;;;;;2066331;28;20667;-84
2023/07/26 01:24:12;;;;;;;6.43;5.17;;;11.00;99.90;;;;;;2056383;28;20198;-84
2023/07/26 01:25:13;;;;;;;7.67;5.30;;;11.00;99.90;;;;;;2055617;28;20223;-84
2023/07/26 01:26:14;;;;;;;5.93;5.33;;;11.00;99.90;;;;;;2050876;28;20546;-84
2023/07/26 01:27:15;;;;;;;7.03;5.50;;;11.00;99.90;;;;;;2065029;28;20206;-84
2023/07/26 01:28:17;;;;;;;7.53;5.33;;;11.00;99.90;;;;;;2065284;28;20269;-84
2023/07/26 01:29:18;;;;;;;6.90;5.18;;;10.90;99.90;;;;;;2061631;28;20186;-84
2023/07/26 01:30:19;;;;;;;7.13;5.20;;;10.90;99.90;;;;;;2057116;28;21890;-84
2023/07/26 01:31:22;;;;;;;6.77;5.80;;;10.80;99.90;;;;;;2060890;28;20270;-84
2023/07/26 01:32:24;;;;;;;8.18;5.20;;;10.90;99.90;;;;;;2069551;28;20922;-84
2023/07/26 01:33:27;;;;;;;5.72;4.72;;;10.80;99.90;;;;;;2081254;28;20238;-84
2023/07/26 01:34:28;;;;;;;6.07;4.93;;;10.80;99.90;;;;;;2066811;28;20232;-83
2023/07/26 01:35:30;;;;;;;8.37;5.40;;;10.70;99.90;;;;;;2063405;28;20226;-84
2023/07/26 01:36:31;;;;;;;5.07;4.57;;;10.80;99.90;;;;;;2064632;28;20226;-84
2023/07/26 01:37:32;;;;;;;6.60;5.00;;;10.70;99.90;;;;;;2064592;28;20218;-83
2023/07/26 01:38:34;;;;;;;7.63;5.00;;;10.70;99.90;;;;;;2061885;28;20214;-83
2023/07/26 01:39:35;;;;;;;5.28;4.35;;;10.60;99.90;;;;;;2064662;28;20711;-84
2023/07/26 01:40:36;;;;;;;5.73;4.87;;;10.60;99.90;;;;;;2057145;28;20223;-84
2023/07/26 01:41:38;;;;;;;6.68;4.53;;;10.60;99.90;;;;;;2064012;28;20476;-83
2023/07/26 01:42:41;;;;;;;7.82;5.20;;;10.50;99.90;;;;;;2068924;28;20773;-84
2023/07/26 01:43:41;;;;;;;5.70;4.90;;;10.50;99.90;;;;;;2066495;28;20253;-83
2023/07/26 01:44:42;;;;;;;7.13;5.10;;;10.50;99.90;;;;;;2065512;28;20320;-84
2023/07/26 01:45:43;;;;;;;9.00;6.20;;;10.50;99.90;;;;;;2070335;28;20342;-84
2023/07/26 01:46:43;;;;;;;6.63;4.90;;;10.50;99.90;;;;;;2069455;28;20225;-83
2023/07/26 01:47:44;;;;;;;7.83;5.77;;;10.50;99.90;;;;;;2068461;28;20280;-84
2023/07/26 01:48:45;;;;;;;7.00;4.80;;;10.60;99.90;;;;;;2060459;28;20233;-83
2023/07/26 01:49:46;;;;;;;9.20;5.93;;;10.50;99.90;;;;;;2059985;28;20307;-83
2023/07/26 01:50:46;;;;;;;7.00;4.80;;;10.50;99.90;;;;;;2053338;28;20229;-84
2023/07/26 01:51:47;;;;;;;7.27;5.37;;;10.50;99.90;;;;;;2062131;28;20255;-83
2023/07/26 01:52:48;;;;;;;8.15;5.82;;;10.50;99.90;;;;;;2059507;28;20225;-84
2023/07/26 01:53:49;;;;;;;5.93;5.33;;;10.40;99.90;;;;;;2066989;28;20225;-84
2023/07/26 01:54:49;;;;;;;7.10;5.63;;;10.30;99.90;;;;;;2059651;28;20281;-84
2023/07/26 01:55:50;;;;;;;6.83;5.27;;;10.30;99.90;;;;;;2063996;28;20280;-84
2023/07/26 01:56:51;;;;;;;7.27;5.40;;;10.30;99.90;;;;;;2071777;28;20234;-83
2023/07/26 01:57:51;;;;;;;6.13;4.77;;;10.30;99.90;;;;;;2059626;28;20235;-84
2023/07/26 01:58:52;;;;;;;6.77;4.77;;;10.30;99.90;;;;;;2059159;28;20227;-83
2023/07/26 01:59:54;;;;;;;6.67;4.83;;;10.40;99.90;;;;;;2067178;28;20706;-83
2023/07/26 02:00:55;;;;;;;6.53;4.90;;;10.40;99.90;;;;;;2058941;28;20321;-84
2023/07/26 02:01:55;;;;;;;10.63;5.67;;;10.50;99.90;;;;;;2059035;28;20253;-83
2023/07/26 02:02:56;;;;;;;11.70;5.33;;;10.60;99.90;;;;;;2063283;28;20233;-84
2023/07/26 02:03:56;;;;;;;6.77;5.87;;;10.60;99.90;;;;;;2064647;28;20229;-84
2023/07/26 02:04:57;;;;;;;6.43;5.27;;;10.50;99.90;;;;;;2069793;28;20225;-84
2023/07/26 02:05:58;;;;;;;6.80;5.17;;;10.50;99.90;;;;;;2068581;28;20220;-83
2023/07/26 02:06:58;;;;;;;7.90;5.10;;;10.50;99.90;;;;;;2068874;28;20213;-83
2023/07/26 02:07:59;;;;;;;8.33;5.87;;;10.50;99.90;;;;;;2063171;28;20197;-84
2023/07/26 02:09:00;;;;;;;8.60;5.33;;;10.60;99.90;;;;;;2062170;28;20269;-83
2023/07/26 02:10:01;;;;;;;8.90;5.90;;;10.50;99.90;;;;;;2069636;28;20202;-83
2023/07/26 02:11:02;;;;;;;6.38;5.00;;;10.60;99.90;;;;;;2067841;28;20304;-83
2023/07/26 02:12:03;;;;;;;7.67;4.83;;;10.60;99.90;;;;;;2067890;28;20182;-83
2023/07/26 02:13:04;;;;;;;9.50;6.05;;;10.60;99.90;;;;;;2079005;28;20192;-84
2023/07/26 02:14:05;;;;;;;7.30;6.03;;;10.60;99.90;;;;;;2071514;28;20232;-82
2023/07/26 02:15:06;;;;;;;8.13;5.53;;;10.60;99.90;;;;;;2070616;28;20216;-82
2023/07/26 02:16:07;;;;;;;6.40;5.22;;;10.60;99.90;;;;;;2079203;28;20180;-83
2023/07/26 02:17:07;;;;;;;6.80;5.47;;;10.50;99.90;;;;;;2078825;28;20215;-83
2023/07/26 02:18:08;;;;;;;7.23;5.27;;;10.50;99.90;;;;;;2071070;28;20177;-84
2023/07/26 02:19:09;;;;;;;8.37;5.13;;;10.40;99.90;;;;;;2067755;28;20209;-83
2023/07/26 02:20:10;;;;;;;6.20;5.27;;;10.30;99.90;;;;;;2054488;28;20282;-83
2023/07/26 02:21:10;;;;;;;7.55;4.88;;;10.30;99.90;;;;;;2060404;28;20241;-82
2023/07/26 02:22:11;;;;;;;5.90;5.30;;;10.30;99.90;;;;;;2073835;28;20186;-83
2023/07/26 02:23:12;;;;;;;7.23;5.03;;;10.20;99.90;;;;;;2065064;28;20698;-83
2023/07/26 02:24:13;;;;;;;5.70;4.80;;;10.20;99.90;;;;;;2068678;28;20191;-83
2023/07/26 02:25:14;;;;;;;7.33;5.27;;;10.20;99.90;;;;;;2069728;28;20192;-83
2023/07/26 02:26:14;;;;;;;6.18;5.28;;;10.30;99.90;;;;;;2063641;28;20591;-83
2023/07/26 02:27:16;;;;;;;8.00;5.90;;;10.30;99.90;;;;;;2062416;28;20249;-83
2023/07/26 02:28:16;;;;;;;7.07;5.55;;;10.30;99.90;;;;;;2067556;28;20194;-83
2023/07/26 02:29:17;;;;;;;8.23;5.40;;;10.40;99.90;;;;;;2067837;28;20191;-83
2023/07/26 02:30:18;;;;;;;8.30;5.63;;;10.30;99.90;;;;;;2071597;28;20193;-83
2023/07/26 02:31:20;;;;;;;7.03;5.00;;;10.30;99.90;;;;;;2063514;28;20241;-83
2023/07/26 02:32:20;;;;;;;9.90;5.45;;;10.30;99.90;;;;;;2058037;28;20241;-83
2023/07/26 02:33:21;;;;;;;7.47;6.30;;;10.40;99.90;;;;;;2065124;28;20367;-84
2023/07/26 02:34:22;;;;;;;13.10;6.10;;;10.40;99.90;;;;;;2063764;28;20600;-83
2023/07/26 02:35:22;;;;;;;7.77;5.50;;;10.30;99.90;;;;;;2063547;28;20254;-84
2023/07/26 02:36:24;;;;;;;6.33;5.60;;;10.20;99.90;;;;;;2072037;28;20327;-83
2023/07/26 02:37:25;;;;;;;8.52;5.75;;;10.10;99.90;;;;;;2063476;28;20311;-84
2023/07/26 02:38:26;;;;;;;7.00;5.80;;;10.10;99.90;;;;;;2067267;28;20229;-82
2023/07/26 02:39:27;;;;;;;8.48;6.10;;;10.20;99.90;;;;;;2063257;28;20229;-83
2023/07/26 02:40:32;;;;;;;7.03;5.20;;;10.20;99.90;;;;;;2071020;28;20233;-84
2023/07/26 02:41:32;;;;;;;7.80;5.72;;;10.20;99.90;;;;;;2071573;28;20256;-83
2023/07/26 02:42:33;;;;;;;7.37;5.83;;;10.20;99.90;;;;;;2060272;28;20757;-83
2023/07/26 02:43:34;;;;;;;10.90;5.83;;;10.10;99.90;;;;;;2061321;28;20313;-83
2023/07/26 02:44:34;;;;;;;6.03;5.10;;;10.00;99.90;;;;;;2067506;28;20301;-84
2023/07/26 02:45:35;;;;;;;7.57;5.70;;;10.00;99.90;;;;;;2068219;28;20242;-85
2023/07/26 02:46:36;;;;;;;6.83;6.10;;;10.00;99.90;;;;;;2060079;28;20282;-83
2023/07/26 02:47:36;;;;;;;6.93;5.20;;;9.90;99.90;;;;;;2059817;28;20241;-83
2023/07/26 02:48:37;;;;;;;6.63;5.90;;;9.90;99.90;;;;;;2059498;28;20245;-84
2023/07/26 02:49:38;;;;;;;7.90;5.57;;;9.90;99.90;;;;;;2064034;28;20842;-84
2023/07/26 02:50:38;;;;;;;8.50;5.63;;;9.90;99.90;;;;;;2068189;28;20237;-85
2023/07/26 02:51:39;;;;;;;6.60;5.77;;;9.90;99.90;;;;;;2071861;28;20241;-83
2023/07/26 02:52:40;;;;;;;5.80;5.17;;;9.90;99.90;;;;;;2063934;28;20328;-84
2023/07/26 02:53:40;;;;;;;6.13;4.97;;;10.00;99.90;;;;;;2077229;28;20240;-85
2023/07/26 02:54:41;;;;;;;6.37;5.30;;;10.00;99.90;;;;;;2072813;28;20224;-84
2023/07/26 02:55:42;;;;;;;8.70;4.83;;;10.00;99.90;;;;;;2067621;28;20233;-83
2023/07/26 02:56:43;;;;;;;5.90;5.17;;;10.10;99.90;;;;;;2068027;28;20263;-83
2023/07/26 02:57:43;;;;;;;7.20;5.20;;;10.10;99.90;;;;;;2056301;28;20230;-83
2023/07/26 02:58:44;;;;;;;4.80;4.30;;;10.10;99.90;;;;;;2068384;28;20567;-84
2023/07/26 02:59:45;;;;;;;5.77;4.97;;;10.10;99.90;;;;;;2085225;28;20228;-84
2023/07/26 03:00:45;;;;;;;7.73;5.37;;;10.10;99.90;;;;;;2070176;28;20419;-84
2023/07/26 03:01:46;;;;;;;5.20;4.60;;;10.20;99.90;;;;;;2055866;28;20262;-83
2023/07/26 03:02:47;;;;;;;7.13;5.23;;;10.20;99.90;;;;;;2062306;28;20226;-84
2023/07/26 03:03:47;;;;;;;6.50;5.10;;;10.30;99.90;;;;;;2055609;28;20236;-84
2023/07/26 03:04:48;;;;;;;5.83;4.70;;;10.30;99.90;;;;;;2063763;28;20607;-83
2023/07/26 03:05:49;;;;;;;7.20;4.83;;;10.30;99.90;;;;;;2063387;28;20250;-84
2023/07/26 03:06:50;;;;;;;6.90;5.17;;;10.30;99.90;;;;;;2057136;28;20273;-84
2023/07/26 03:07:51;;;;;;;6.85;4.85;;;10.30;99.90;;;;;;2060508;28;20238;-82
2023/07/26 03:08:52;;;;;;;6.47;4.37;;;10.40;99.90;;;;;;2059761;28;20226;-84
2023/07/26 03:09:53;;;;;;;6.80;4.83;;;10.50;99.90;;;;;;2070915;28;20311;-84
2023/07/26 03:10:53;;;;;;;6.03;5.30;;;10.50;99.90;;;;;;2061668;28;20476;-84
2023/07/26 03:11:54;;;;;;;5.00;4.37;;;10.40;99.90;;;;;;2067849;28;20233;-83
2023/07/26 03:12:55;;;;;;;6.40;4.93;;;10.40;99.90;;;;;;2069448;28;20295;-84
2023/07/26 03:13:56;;;;;;;8.13;5.63;;;10.40;99.90;;;;;;2059661;28;20266;-84
2023/07/26 03:14:57;;;;;;;5.90;4.90;;;10.40;99.90;;;;;;2072258;28;20236;-83
2023/07/26 03:15:57;;;;;;;6.40;5.27;;;10.40;99.90;;;;;;2072563;28;20316;-83
2023/07/26 03:16:58;;;;;;;7.30;5.23;;;10.50;99.90;;;;;;2063612;28;20229;-84
2023/07/26 03:17:59;;;;;;;6.07;4.57;;;10.60;99.90;;;;;;2061692;28;20280;-84
2023/07/26 03:19:00;;;;;;;8.33;5.43;;;10.60;99.90;;;;;;2062966;28;20186;-83
2023/07/26 03:20:02;;;;;;;6.40;5.00;;;10.70;99.90;;;;;;2059764;28;20183;-83
2023/07/26 03:21:03;;;;;;;7.00;5.22;;;10.70;99.90;;;;;;2055953;28;20195;-84
2023/07/26 03:22:04;;;;;;;8.13;5.83;;;10.70;99.90;;;;;;2063342;28;20678;-83
2023/07/26 03:23:05;;;;;;;5.80;5.20;;;10.70;99.90;;;;;;2055467;28;20217;-84
2023/07/26 03:24:05;;;;;;;6.67;5.87;;;10.80;99.90;;;;;;2062985;28;20670;-84
2023/07/26 03:25:07;;;;;;;7.37;5.63;;;10.90;99.90;;;;;;2067468;28;20186;-83
2023/07/26 03:26:08;;;;;;;5.97;5.30;;;10.90;99.90;;;;;;2067501;28;20285;-84
2023/07/26 03:27:08;;;;;;;6.97;5.20;;;10.80;99.90;;;;;;2062613;28;20193;-83
2023/07/26 03:28:09;;;;;;;8.20;5.67;;;10.80;99.90;;;;;;2070930;28;20330;-84
2023/07/26 03:29:10;;;;;;;7.53;5.43;;;10.70;99.90;;;;;;2058648;28;20190;-83
2023/07/26 03:30:11;;;;;;;6.40;5.37;;;10.60;99.90;;;;;;2063727;28;20191;-84
2023/07/26 03:31:12;;;;;;;7.50;5.50;;;10.60;99.90;;;;;;2055032;28;20202;-84
2023/07/26 03:32:14;;;;;;;7.73;5.67;;;10.60;99.90;;;;;;2059023;28;20186;-84
2023/07/26 03:33:14;;;;;;;8.55;5.85;;;10.60;99.90;;;;;;2068631;28;20264;-84
2023/07/26 03:34:15;;;;;;;6.17;5.30;;;10.50;99.90;;;;;;2063684;28;20205;-84
2023/07/26 03:35:16;;;;;;;9.90;5.33;;;10.50;99.90;;;;;;2063859;28;20554;-84
2023/07/26 03:36:17;;;;;;;8.67;5.67;;;10.50;99.90;;;;;;2063030;28;20284;-84
2023/07/26 03:37:19;;;;;;;7.47;5.90;;;10.50;99.90;;;;;;2062964;28;20253;-83
2023/07/26 03:38:20;;;;;;;7.03;6.30;;;10.60;99.90;;;;;;2066706;28;20296;-84
2023/07/26 03:39:20;;;;;;;6.20;5.60;;;10.60;99.90;;;;;;2072893;28;20255;-84
2023/07/26 03:40:21;;;;;;;6.80;6.10;;;10.60;99.90;;;;;;2070350;28;20613;-84
2023/07/26 03:41:22;;;;;;;7.43;5.63;;;10.60;99.90;;;;;;2067485;28;20294;-84
2023/07/26 03:42:22;;;;;;;7.97;6.63;;;10.50;99.90;;;;;;2070196;28;20229;-83
2023/07/26 03:43:23;;;;;;;7.90;5.07;;;10.40;99.90;;;;;;2062800;28;21531;-85
2023/07/26 03:44:24;;;;;;;9.13;6.10;;;10.40;99.90;;;;;;2055761;28;20249;-84
2023/07/26 03:45:26;;;;;;;6.27;5.67;;;10.50;99.90;;;;;;2050959;28;20337;-83
2023/07/26 03:46:27;;;;;;;6.57;5.88;;;10.60;99.90;;;;;;2058918;28;20226;-83
2023/07/26 03:47:28;;;;;;;7.97;6.10;;;10.60;99.90;;;;;;2057438;28;20675;-83
2023/07/26 03:48:28;;;;;;;6.07;5.27;;;10.60;99.90;;;;;;2062863;28;20242;-83
2023/07/26 03:49:29;;;;;;;6.27;5.33;;;10.70;99.90;;;;;;2054675;28;20241;-83
2023/07/26 03:50:30;;;;;;;8.07;5.70;;;10.70;99.90;;;;;;2070046;28;20245;-83
2023/07/26 03:51:30;;;;;;;7.07;6.37;;;10.70;99.90;;;;;;2066895;28;20595;-83
2023/07/26 03:52:31;;;;;;;6.83;5.67;;;10.70;99.90;;;;;;2060107;28;20324;-83
2023/07/26 03:53:32;;;;;;;8.50;6.00;;;10.80;99.90;;;;;;2071592;28;20784;-83
2023/07/26 03:54:33;;;;;;;7.27;5.37;;;10.80;99.90;;;;;;2063478;28;20226;-84
2023/07/26 03:55:33;;;;;;;6.77;5.43;;;10.90;99.90;;;;;;2069003;28;20256;-83
2023/07/26 03:56:34;;;;;;;7.93;5.93;;;10.90;99.90;;;;;;2073448;28;20229;-84
2023/07/26 03:57:35;;;;;;;7.03;6.10;;;10.90;99.90;;;;;;2068110;28;20225;-83
2023/07/26 03:58:35;;;;;;;7.50;5.70;;;10.90;99.90;;;;;;2062049;28;20687;-84
2023/07/26 03:59:36;;;;;;;8.70;5.87;;;10.90;99.90;;;;;;2054538;28;20233;-84
2023/07/26 04:00:37;;;;;;;7.90;5.23;;;10.90;99.90;;;;;;2059037;28;20230;-83
2023/07/26 04:01:37;;;;;;;6.13;5.40;;;10.80;99.90;;;;;;2066998;28;20800;-83
2023/07/26 04:02:38;;;;;;;9.00;6.00;;;10.70;99.90;;;;;;2058684;28;20285;-84
2023/07/26 04:03:39;;;;;;;7.60;5.40;;;10.70;99.90;;;;;;2075259;28;20234;-83
2023/07/26 04:04:39;;;;;;;6.53;5.50;;;10.70;99.90;;;;;;2076459;28;20257;-84
2023/07/26 04:05:40;;;;;;;7.93;6.40;;;10.60;99.90;;;;;;2065219;28;20242;-83
2023/07/26 04:06:41;;;;;;;6.50;5.80;;;10.60;99.90;;;;;;2064483;28;20398;-83
2023/07/26 04:07:41;;;;;;;6.53;5.67;;;10.60;99.90;;;;;;2068122;28;20260;-84
2023/07/26 04:08:42;;;;;;;5.77;5.17;;;10.70;99.90;;;;;;2068610;28;20271;-84
2023/07/26 04:09:43;;;;;;;7.90;5.57;;;10.80;99.90;;;;;;2063307;28;20242;-84
2023/07/26 04:10:43;;;;;;;8.03;5.73;;;10.80;99.90;;;;;;2063541;28;20230;-85
2023/07/26 04:11:44;;;;;;;6.83;5.20;;;10.80;99.90;;;;;;2055618;28;20642;-85
2023/07/26 04:12:45;;;;;;;5.80;5.17;;;10.70;99.90;;;;;;2064395;28;20230;-84
2023/07/26 04:13:45;;;;;;;7.43;5.70;;;10.80;99.90;;;;;;2063693;28;20774;-85
2023/07/26 04:14:47;;;;;;;6.60;6.00;;;10.80;99.90;;;;;;2063370;28;20241;-84
2023/07/26 04:15:48;;;;;;;7.15;6.30;;;10.70;99.90;;;;;;2063976;28;20225;-84
2023/07/26 04:16:50;;;;;;;6.87;5.57;;;10.50;99.90;;;;;;2054204;28;20230;-84
2023/07/26 04:17:51;;;;;;;9.18;6.60;;;10.40;99.90;;;;;;2066871;28;20385;-84
2023/07/26 04:18:52;;;;;;;7.63;5.63;;;10.40;99.90;;;;;;2076288;28;20232;-83
2023/07/26 04:19:52;;;;;;;6.32;5.57;;;10.40;99.90;;;;;;2059128;28;20226;-84
2023/07/26 04:20:53;;;;;;;10.57;6.03;;;10.40;99.90;;;;;;2063534;28;20257;-84
2023/07/26 04:21:54;;;;;;;7.97;5.80;;;10.30;99.90;;;;;;2063371;28;20661;-84
2023/07/26 04:22:55;;;;;;;10.57;6.20;;;10.40;99.90;;;;;;2067170;28;20248;-84
2023/07/26 04:23:56;;;;;;;6.83;5.27;;;10.40;99.90;;;;;;2067761;28;21093;-82
2023/07/26 04:24:58;;;;;;;8.00;5.33;;;10.40;99.90;;;;;;2068577;28;20774;-83
2023/07/26 04:25:59;;;;;;;8.32;5.43;;;10.40;99.90;;;;;;2063930;28;20242;-84
2023/07/26 04:27:00;;;;;;;5.87;4.90;;;10.60;99.90;;;;;;2060025;28;20195;-84
2023/07/26 04:28:00;;;;;;;10.80;5.60;;;10.70;99.90;;;;;;2069237;28;20308;-83
2023/07/26 04:29:01;;;;;;;8.50;6.73;;;10.70;99.90;;;;;;2085928;28;20599;-83
2023/07/26 04:30:03;;;;;;;6.40;5.47;;;10.80;99.90;;;;;;2074262;28;20266;-83
2023/07/26 04:31:04;;;;;;;10.50;6.10;;;10.80;99.90;;;;;;2065299;28;20206;-84
2023/07/26 04:32:05;;;;;;;8.47;6.13;;;10.90;99.90;;;;;;2064032;28;20182;-84
2023/07/26 04:33:06;;;;;;;6.97;5.80;;;10.90;99.90;;;;;;2064623;28;20196;-84
2023/07/26 04:34:06;;;;;;;6.53;5.70;;;11.00;99.90;;;;;;2062614;28;20228;-84
2023/07/26 04:35:08;;;;;;;8.70;6.17;;;11.00;99.90;;;;;;2057327;28;20297;-84
2023/07/26 04:36:08;;;;;;;8.48;6.32;;;11.00;99.90;;;;;;2069200;28;20190;-84
2023/07/26 04:37:09;;;;;;;10.80;7.37;;;11.00;99.90;;;;;;2069704;28;20193;-83
2023/07/26 04:38:10;;;;;;;8.57;6.57;;;11.00;99.90;;;;;;2072835;28;20224;-83
2023/07/26 04:39:10;;;;;;;9.53;6.43;;;10.90;99.90;;;;;;2072174;28;20186;-83
2023/07/26 04:40:12;;;;;;;8.67;6.97;;;11.00;99.90;;;;;;2074332;28;20197;-83
2023/07/26 04:41:13;;;;;;;8.15;6.47;;;11.00;99.90;;;;;;2063643;28;20218;-84
2023/07/26 04:42:14;;;;;;;8.00;6.93;;;10.90;99.90;;;;;;2061313;28;20191;-84
2023/07/26 04:43:21;;;;;;;11.07;7.03;;;10.90;99.90;;;;;;2070670;28;20185;-85
2023/07/26 04:44:22;;;;;;;8.07;6.18;;;10.90;99.90;;;;;;2062351;28;20312;-83
2023/07/26 04:45:22;;;;;;;10.10;6.53;;;10.90;99.90;;;;;;2057826;28;20234;-84
2023/07/26 04:46:23;;;;;;;9.20;6.57;;;11.00;99.90;;;;;;2059878;28;20554;-82
2023/07/26 04:47:24;;;;;;;8.97;6.43;;;11.10;99.90;;;;;;2064774;28;20607;-84
2023/07/26 04:48:25;;;;;;;7.90;5.93;;;11.10;99.90;;;;;;2079872;28;20241;-85
2023/07/26 04:49:25;;;;;;;7.83;6.53;;;11.10;99.90;;;;;;2069377;28;20234;-85
2023/07/26 04:50:26;;;;;;;11.67;7.13;;;11.10;99.90;;;;;;2067139;28;20230;-84
2023/07/26 04:51:27;;;;;;;7.63;6.83;;;11.10;99.90;;;;;;2073759;28;20293;-84
2023/07/26 04:52:28;;;;;;;9.10;5.93;;;11.10;99.90;;;;;;2077213;28;20291;-83
2023/07/26 04:53:28;;;;;;;9.77;7.40;;;11.00;99.90;;;;;;2074057;28;20232;-84
2023/07/26 04:54:29;;;;;;;8.90;6.23;;;11.10;99.90;;;;;;2073180;28;20260;-84
2023/07/26 04:55:31;;;;;;;9.47;6.40;;;11.10;99.90;;;;;;2063606;28;20592;-84
2023/07/26 04:56:32;;;;;;;11.77;8.45;;;11.20;99.90;;;;;;2064918;28;20229;-83
2023/07/26 04:57:32;;;;;;;9.13;7.40;;;11.20;99.90;;;;;;2077509;28;20265;-84
2023/07/26 04:58:33;;;;;;;9.70;6.73;;;11.10;99.90;;;;;;2081894;28;20244;-83
2023/07/26 04:59:34;;;;;;;9.67;6.53;;;11.20;99.90;;;;;;2080636;28;20237;-84
2023/07/26 05:00:38;;;;;;;9.70;7.40;;;11.00;99.90;;;;;;2076108;28;20225;-84
2023/07/26 05:01:39;;;;;;;8.13;6.47;;;11.00;99.90;;;;;;2081867;28;20247;-83
2023/07/26 05:02:40;;;;;;;10.17;7.37;;;10.90;99.90;;;;;;2076639;28;20237;-83
2023/07/26 05:03:41;;;;;;;10.57;7.37;;;10.80;99.90;;;;;;2068560;28;20401;-83
2023/07/26 05:04:41;;;;;;;8.93;7.33;;;10.80;99.90;;;;;;2056536;28;20266;-84
2023/07/26 05:05:50;;;;;;;9.97;7.63;;;10.80;99.90;;;;;;2063883;28;20269;-84
2023/07/26 05:06:51;;;;;;;8.27;6.97;;;10.80;99.90;;;;;;2070596;28;20229;-83
2023/07/26 05:07:51;;;;;;;10.37;7.20;;;10.80;99.90;;;;;;2072849;28;20228;-84
2023/07/26 05:08:52;;;;;;;11.63;7.40;;;10.70;99.90;;;;;;2069301;28;20222;-82
2023/07/26 05:09:52;;;;;;;6.93;6.10;;;10.60;99.90;;;;;;2069238;28;20313;-84
2023/07/26 05:10:53;;;;;;;9.40;7.27;;;10.60;99.90;;;;;;2072938;28;20721;-84
2023/07/26 05:11:54;;;;;;;8.50;6.10;;;10.60;99.90;;;;;;2061278;28;20249;-83
2023/07/26 05:12:58;;;;;;;8.93;6.77;;;10.60;99.90;;;;;;2068795;28;20285;-84
2023/07/26 05:13:59;;;;;;;7.30;6.32;;;10.60;99.90;;;;;;2075539;28;20311;-82
2023/07/26 05:15:00;;;;;;;8.10;5.80;;;10.50;99.90;;;;;;2067804;28;20191;-84
2023/07/26 05:16:00;;;;;;;8.13;5.60;;;10.50;99.90;;;;;;2077178;28;20195;-83
2023/07/26 05:17:01;;;;;;;8.00;5.70;;;10.60;99.90;;;;;;2077365;28;20181;-83
2023/07/26 05:18:02;;;;;;;9.17;5.83;;;10.70;99.90;;;;;;2068643;28;20227;-83
2023/07/26 05:19:03;;;;;;;7.27;5.83;;;10.80;99.90;;;;;;2060743;28;20218;-83